Time;durP1;ratioP1;P1;durP2;ratioP2;P2;SDS_P1;SDS_P2;PMS_P1;PMS_P2;Temp;Humidity;BMP_temperature;BMP_pressure;BME280_temperature;BME280_humidity;BME280_pressure;Samples;Min_cycle;Max_cycle;Signal;HPM_P1;HPM_P2
2021/11/08 00:00:55;;;;;;;4.13;2.08;;;17.80;64.10;;;;;;5051253;28;20582;-61
2021/11/08 00:03:23;;;;;;;2.60;1.90;;;17.80;64.10;;;;;;5051475;28;20240;-61
2021/11/08 00:05:50;;;;;;;3.85;1.95;;;17.80;64.10;;;;;;5050702;28;20352;-60
2021/11/08 00:08:17;;;;;;;2.67;2.05;;;17.80;64.10;;;;;;5051245;28;20176;-60
2021/11/08 00:10:42;;;;;;;2.67;1.90;;;17.80;64.10;;;;;;5050841;28;20317;-62
2021/11/08 00:13:08;;;;;;;2.88;2.03;;;17.80;64.10;;;;;;5050165;28;20619;-61
2021/11/08 00:20:51;;;;;;;4.05;2.05;;;17.80;64.10;;;;;;5053582;28;20182;-62
2021/11/08 00:23:17;;;;;;;5.68;2.55;;;17.70;64.10;;;;;;5054514;28;20893;-61
2021/11/08 00:25:43;;;;;;;2.60;1.55;;;17.70;64.10;;;;;;5054225;28;20175;-61
2021/11/08 00:28:10;;;;;;;2.72;1.98;;;17.70;64.10;;;;;;5053796;28;20178;-61
2021/11/08 00:30:36;;;;;;;4.75;2.47;;;17.70;64.10;;;;;;5054313;28;20198;-61
2021/11/08 00:33:03;;;;;;;2.70;1.77;;;17.70;64.10;;;;;;5054304;28;20637;-60
2021/11/08 00:35:28;;;;;;;2.83;2.08;;;18.00;64.20;;;;;;5053319;28;20186;-60
2021/11/08 00:37:54;;;;;;;3.75;2.08;;;17.70;64.10;;;;;;5054377;28;20175;-60
2021/11/08 00:40:19;;;;;;;3.72;2.28;;;17.70;64.10;;;;;;5054416;28;20638;-61
2021/11/08 00:42:45;;;;;;;3.47;2.30;;;17.70;64.20;;;;;;5053554;28;20182;-62
2021/11/08 00:45:11;;;;;;;3.28;2.13;;;17.70;64.10;;;;;;5054023;28;20223;-59
2021/11/08 00:47:37;;;;;;;2.45;1.92;;;17.60;64.00;;;;;;5053100;28;20623;-61
2021/11/08 00:50:04;;;;;;;2.10;1.90;;;17.60;64.00;;;;;;5054108;28;20233;-60
2021/11/08 00:52:29;;;;;;;3.40;2.00;;;17.60;64.00;;;;;;5053450;28;20253;-62
2021/11/08 00:54:55;;;;;;;4.25;2.38;;;17.60;64.00;;;;;;5053044;28;20202;-62
2021/11/08 00:57:24;;;;;;;2.30;1.83;;;17.60;64.00;;;;;;5054043;28;20336;-61
2021/11/08 00:59:52;;;;;;;4.00;2.30;;;17.60;63.90;;;;;;5053352;28;20680;-61
2021/11/08 01:02:19;;;;;;;3.70;2.20;;;17.60;64.00;;;;;;5053148;28;20182;-60
2021/11/08 01:04:44;;;;;;;2.83;1.70;;;17.60;63.90;;;;;;5053598;28;20197;-61
2021/11/08 01:07:10;;;;;;;3.60;2.40;;;17.60;63.90;;;;;;5053856;28;20274;-60
2021/11/08 01:09:36;;;;;;;4.35;2.10;;;17.60;63.90;;;;;;5052736;28;20179;-61
2021/11/08 01:12:01;;;;;;;2.65;1.77;;;17.60;63.90;;;;;;5053732;28;20261;-62
2021/11/08 01:14:27;;;;;;;5.18;2.22;;;17.50;63.90;;;;;;5053855;28;20168;-62
2021/11/08 01:16:58;;;;;;;4.13;2.20;;;17.50;63.90;;;;;;5052692;28;20272;-61
2021/11/08 01:19:27;;;;;;;3.08;1.80;;;17.50;63.80;;;;;;5053523;28;20237;-61
2021/11/08 01:22:02;;;;;;;3.40;1.88;;;17.50;63.90;;;;;;5053041;28;20536;-61
2021/11/08 01:24:28;;;;;;;2.95;1.85;;;17.50;63.90;;;;;;5052902;28;20596;-62
2021/11/08 01:26:53;;;;;;;3.55;2.33;;;17.50;63.90;;;;;;5052492;28;20211;-61
2021/11/08 01:29:19;;;;;;;2.15;1.70;;;17.50;63.90;;;;;;5053552;28;20201;-61
2021/11/08 01:31:44;;;;;;;2.38;1.75;;;17.50;63.90;;;;;;5052358;28;20657;-61
2021/11/08 01:34:10;;;;;;;3.35;1.88;;;17.50;63.90;;;;;;5053567;28;20167;-60
2021/11/08 01:36:38;;;;;;;4.30;2.10;;;17.50;63.90;;;;;;5052822;28;20190;-61
2021/11/08 01:39:16;;;;;;;3.40;2.28;;;17.40;63.90;;;;;;5053298;28;20236;-60
2021/11/08 01:41:43;;;;;;;2.85;1.98;;;17.50;63.80;;;;;;5053137;28;20187;-61
2021/11/08 01:44:08;;;;;;;2.58;1.67;;;17.40;63.80;;;;;;5052563;28;20190;-60
2021/11/08 01:46:34;;;;;;;2.65;1.90;;;17.40;63.90;;;;;;5052571;28;20222;-60
2021/11/08 01:48:59;;;;;;;1.80;1.70;;;17.40;63.80;;;;;;5053091;28;20175;-61
2021/11/08 01:51:26;;;;;;;2.83;1.92;;;17.40;63.80;;;;;;5052379;28;20238;-61
2021/11/08 01:53:51;;;;;;;3.83;2.08;;;17.40;63.80;;;;;;5052526;28;20534;-61
2021/11/08 01:56:18;;;;;;;3.13;1.85;;;17.40;63.90;;;;;;5052952;28;20171;-62
2021/11/08 01:58:43;;;;;;;2.75;1.95;;;17.40;63.90;;;;;;5051835;28;20175;-62
2021/11/08 02:01:09;;;;;;;3.85;2.17;;;17.40;63.90;;;;;;5052791;28;20182;-61
2021/11/08 02:03:34;;;;;;;2.78;1.90;;;17.40;63.90;;;;;;5052447;28;20171;-61
2021/11/08 02:06:00;;;;;;;2.65;1.80;;;17.40;63.90;;;;;;5052085;28;20657;-60
2021/11/08 02:08:26;;;;;;;2.53;2.05;;;17.30;63.80;;;;;;5052606;28;20534;-60
2021/11/08 02:10:54;;;;;;;1.83;1.48;;;17.30;63.70;;;;;;5052350;28;20596;-61
2021/11/08 02:13:20;;;;;;;2.40;1.75;;;17.30;63.70;;;;;;5051975;28;20661;-61
2021/11/08 02:15:45;;;;;;;2.15;1.60;;;17.30;63.90;;;;;;5052280;28;20174;-61
2021/11/08 02:18:12;;;;;;;3.08;2.05;;;17.30;63.80;;;;;;5052375;28;20245;-61
2021/11/08 02:20:38;;;;;;;2.35;1.60;;;17.30;63.80;;;;;;5051524;28;20236;-60
2021/11/08 02:23:05;;;;;;;1.70;1.60;;;17.30;63.70;;;;;;5052518;28;20167;-60
2021/11/08 02:25:31;;;;;;;2.08;1.70;;;17.30;63.80;;;;;;5052129;28;20183;-60
2021/11/08 02:27:57;;;;;;;2.47;2.17;;;17.30;63.70;;;;;;5051816;28;20233;-61
2021/11/08 02:30:24;;;;;;;2.78;1.80;;;17.30;63.80;;;;;;5052362;28;20609;-60
2021/11/08 02:32:52;;;;;;;2.13;1.90;;;17.30;63.80;;;;;;5051783;28;20222;-60
2021/11/08 02:35:17;;;;;;;3.85;2.42;;;17.30;63.70;;;;;;5051884;28;20266;-60
2021/11/08 02:37:43;;;;;;;2.33;1.60;;;17.30;63.80;;;;;;5051877;28;20211;-60
2021/11/08 02:40:17;;;;;;;2.03;1.65;;;17.20;63.80;;;;;;5051485;28;20178;-59
2021/11/08 02:42:43;;;;;;;1.95;1.70;;;17.20;63.70;;;;;;5051931;28;20183;-62
2021/11/08 02:45:09;;;;;;;2.13;1.73;;;17.20;63.70;;;;;;5051827;28;20231;-61
2021/11/08 02:47:34;;;;;;;2.55;1.60;;;17.30;63.80;;;;;;5051059;28;20214;-61
2021/11/08 02:50:02;;;;;;;1.98;1.75;;;17.20;63.70;;;;;;5051928;28;20167;-62
2021/11/08 02:52:28;;;;;;;2.10;1.88;;;17.20;63.70;;;;;;5052019;28;20221;-61
2021/11/08 02:54:53;;;;;;;2.97;2.00;;;17.20;63.70;;;;;;5051388;28;20167;-63
2021/11/08 02:57:24;;;;;;;1.98;1.67;;;17.20;63.70;;;;;;5050511;28;20271;-62
2021/11/08 02:59:51;;;;;;;2.85;1.92;;;17.20;63.70;;;;;;5051624;28;20232;-61
2021/11/08 03:02:18;;;;;;;1.50;1.40;;;17.20;63.70;;;;;;5051391;28;20535;-61
2021/11/08 03:04:47;;;;;;;3.05;1.52;;;17.20;63.70;;;;;;5051641;28;20232;-61
2021/11/08 03:07:13;;;;;;;2.53;1.40;;;17.20;63.70;;;;;;5051942;28;20182;-60
2021/11/08 03:09:42;;;;;;;3.38;2.00;;;17.20;63.70;;;;;;5050682;28;20175;-61
2021/11/08 03:12:11;;;;;;;2.30;1.50;;;17.10;63.70;;;;;;5051765;28;20203;-62
2021/11/08 03:14:43;;;;;;;3.65;1.88;;;17.20;63.70;;;;;;5051372;28;20183;-62
2021/11/08 03:17:11;;;;;;;3.15;1.40;;;17.10;63.70;;;;;;5051308;28;20186;-61
2021/11/08 03:19:38;;;;;;;2.15;1.52;;;17.10;63.70;;;;;;5051486;28;20181;-60
2021/11/08 03:22:14;;;;;;;2.50;1.67;;;17.10;63.70;;;;;;5051681;28;20187;-61
2021/11/08 03:24:44;;;;;;;1.40;1.30;;;17.10;63.60;;;;;;5051311;28;20584;-62
2021/11/08 03:27:15;;;;;;;2.17;1.77;;;17.10;63.60;;;;;;5051484;28;20252;-61
2021/11/08 03:29:41;;;;;;;2.92;1.60;;;17.10;63.60;;;;;;5050710;28;20179;-61
2021/11/08 03:32:07;;;;;;;2.13;1.48;;;17.10;63.60;;;;;;5051552;28;20692;-61
2021/11/08 03:34:34;;;;;;;2.00;1.58;;;17.10;63.70;;;;;;5051545;28;20179;-61
2021/11/08 03:36:59;;;;;;;1.90;1.38;;;17.10;63.60;;;;;;5033283;28;20185;-61
2021/11/08 03:39:25;;;;;;;2.65;1.60;;;17.10;63.60;;;;;;5051428;28;20258;-60
2021/11/08 03:41:51;;;;;;;1.90;1.67;;;17.10;63.70;;;;;;5051451;28;20258;-62
2021/11/08 03:44:16;;;;;;;3.15;1.58;;;17.10;63.60;;;;;;5050947;28;20175;-61
2021/11/08 03:46:42;;;;;;;2.20;1.35;;;17.10;63.70;;;;;;5050719;28;20705;-62
2021/11/08 03:49:07;;;;;;;2.33;1.63;;;17.00;63.60;;;;;;5051395;28;20176;-62
2021/11/08 03:51:34;;;;;;;2.03;1.52;;;17.00;63.50;;;;;;5053195;28;20692;-62
2021/11/08 03:54:00;;;;;;;2.40;1.85;;;17.00;63.50;;;;;;5055000;28;20179;-63
2021/11/08 03:56:25;;;;;;;1.60;1.50;;;17.00;63.60;;;;;;5055162;28;20187;-63
2021/11/08 03:58:52;;;;;;;1.35;1.25;;;17.00;63.50;;;;;;5054041;28;20195;-63
2021/11/08 04:01:17;;;;;;;2.70;1.42;;;17.00;63.60;;;;;;5055014;28;20194;-62
2021/11/08 04:03:43;;;;;;;2.15;1.60;;;17.00;63.60;;;;;;5054676;28;20170;-61
2021/11/08 04:06:08;;;;;;;2.10;1.52;;;17.00;63.60;;;;;;5054205;28;20187;-61
2021/11/08 04:08:34;;;;;;;2.17;1.45;;;17.00;63.60;;;;;;5054652;28;20171;-61
2021/11/08 04:10:59;;;;;;;2.08;1.50;;;17.00;63.60;;;;;;5055005;28;20167;-62
2021/11/08 04:13:29;;;;;;;2.95;1.40;;;17.00;63.60;;;;;;5054438;28;20181;-63
2021/11/08 04:15:56;;;;;;;1.95;1.50;;;17.00;63.60;;;;;;5054988;28;20183;-62
2021/11/08 04:18:25;;;;;;;2.33;1.67;;;17.00;63.60;;;;;;5054705;28;20650;-61
2021/11/08 04:20:51;;;;;;;2.30;1.38;;;17.00;63.60;;;;;;5054496;28;20186;-61
2021/11/08 04:23:18;;;;;;;2.50;1.60;;;16.90;63.50;;;;;;5054581;28;20183;-61
2021/11/08 04:25:43;;;;;;;3.17;1.73;;;16.90;63.50;;;;;;5053831;28;20252;-61
2021/11/08 04:28:09;;;;;;;2.17;1.65;;;17.00;63.50;;;;;;5054624;28;20225;-61
2021/11/08 04:30:38;;;;;;;1.80;1.35;;;16.90;63.50;;;;;;5054296;28;20175;-63
2021/11/08 04:33:16;;;;;;;2.42;2.00;;;16.90;63.50;;;;;;5053856;28;20253;-60
2021/11/08 04:36:28;;;;;;;2.90;1.63;;;16.90;63.50;;;;;;5054017;28;20183;-61
2021/11/08 04:41:40;;;;;;;1.73;1.23;;;16.90;63.50;;;;;;5053658;28;20665;-61
2021/11/08 04:44:40;;;;;;;2.95;1.50;;;16.90;63.50;;;;;;5054198;28;20183;-62
2021/11/08 04:52:21;;;;;;;1.85;1.50;;;16.90;63.50;;;;;;5054060;28;20213;-62
2021/11/08 05:24:38;;;;;;;1.80;1.70;;;16.80;63.50;;;;;;5054011;28;20270;-63
2021/11/08 05:32:19;;;;;;;1.67;1.52;;;16.80;63.50;;;;;;5053524;28;20209;-62
2021/11/08 05:34:45;;;;;;;2.45;1.40;;;16.80;63.50;;;;;;5053108;28;20178;-62
2021/11/08 05:37:10;;;;;;;1.20;1.10;;;16.70;63.50;;;;;;5052694;28;20557;-62
2021/11/08 05:39:37;;;;;;;2.33;1.70;;;16.70;63.50;;;;;;5052874;28;20716;-61
2021/11/08 05:42:03;;;;;;;1.35;1.20;;;16.70;63.50;;;;;;5053028;28;20213;-62
2021/11/08 05:44:30;;;;;;;1.63;1.40;;;16.80;63.60;;;;;;5052132;28;20175;-61
2021/11/08 05:46:55;;;;;;;2.15;1.40;;;16.70;63.50;;;;;;5052766;28;20635;-61
2021/11/08 05:49:21;;;;;;;2.17;1.38;;;16.80;63.60;;;;;;5053072;28;20176;-62
2021/11/08 05:51:47;;;;;;;1.60;1.20;;;16.70;63.50;;;;;;5051843;28;20568;-62
2021/11/08 05:54:12;;;;;;;1.58;1.40;;;16.70;63.50;;;;;;5051628;28;20171;-63
2021/11/08 05:57:01;;;;;;;2.05;1.38;;;16.70;63.50;;;;;;5052652;28;20182;-64
2021/11/08 06:50:59;;;;;;;1.92;1.48;;;16.60;63.50;;;;;;5051948;28;20638;-61
2021/11/08 06:53:25;;;;;;;2.60;1.55;;;16.60;63.50;;;;;;5051095;28;20252;-61
2021/11/08 06:55:53;;;;;;;2.22;1.48;;;16.60;63.50;;;;;;5051709;28;20179;-62
2021/11/08 06:58:21;;;;;;;1.63;1.45;;;16.50;63.40;;;;;;5051924;28;20201;-61
2021/11/08 07:00:47;;;;;;;1.33;1.23;;;16.60;63.40;;;;;;5050805;28;20630;-61
2021/11/08 07:03:13;;;;;;;1.90;1.30;;;16.60;64.30;;;;;;5051921;28;20228;-60
2021/11/08 07:05:39;;;;;;;1.60;1.42;;;16.60;63.50;;;;;;5051459;28;20178;-60
2021/11/08 07:08:05;;;;;;;1.83;1.60;;;16.60;63.70;;;;;;5051332;28;20268;-60
2021/11/08 07:10:30;;;;;;;1.45;1.35;;;16.80;64.00;;;;;;5051876;28;20182;-62
2021/11/08 07:12:56;;;;;;;1.70;1.20;;;16.90;63.40;;;;;;5051786;28;20218;-62
2021/11/08 07:15:23;;;;;;;1.48;1.38;;;17.10;63.10;;;;;;5051196;28;20185;-68
2021/11/08 07:17:49;;;;;;;1.80;1.15;;;17.30;63.10;;;;;;5051511;28;20700;-67
2021/11/08 07:20:14;;;;;;;3.38;1.50;;;17.50;62.60;;;;;;5051824;28;20179;-68
2021/11/08 07:22:40;;;;;;;2.40;1.42;;;17.80;62.10;;;;;;5049423;28;20706;-67
2021/11/08 07:25:09;;;;;;;3.28;1.10;;;18.00;61.70;;;;;;5052219;28;20179;-66
2021/11/08 07:27:34;;;;;;;2.45;1.50;;;18.10;61.20;;;;;;5054931;28;20622;-66
2021/11/08 07:30:00;;;;;;;3.88;1.58;;;18.20;61.00;;;;;;5055149;28;20189;-67
2021/11/08 07:32:25;;;;;;;3.88;1.27;;;18.50;60.30;;;;;;5055648;28;20199;-68
2021/11/08 07:34:51;;;;;;;3.08;1.55;;;18.70;59.80;;;;;;5055291;28;20178;-69
2021/11/08 07:37:17;;;;;;;2.38;1.33;;;18.70;59.50;;;;;;5054941;28;20265;-67
2021/11/08 07:39:43;;;;;;;3.50;1.48;;;18.80;59.30;;;;;;5055087;28;20254;-67
2021/11/08 07:42:08;;;;;;;2.72;1.50;;;18.80;59.30;;;;;;5055586;28;20175;-67
2021/11/08 07:44:34;;;;;;;3.13;1.40;;;18.90;59.20;;;;;;5054358;28;20212;-67
2021/11/08 07:46:59;;;;;;;2.90;1.50;;;18.90;59.00;;;;;;5055090;28;20238;-67
2021/11/08 07:49:25;;;;;;;1.65;1.27;;;19.00;59.00;;;;;;5054545;28;20178;-71
2021/11/08 07:51:50;;;;;;;5.13;1.98;;;19.00;59.00;;;;;;5055038;28;20264;-69
2021/11/08 07:54:16;;;;;;;2.22;1.40;;;19.00;59.00;;;;;;5055148;28;20171;-71
2021/11/08 07:56:42;;;;;;;4.75;1.70;;;19.00;58.50;;;;;;5054199;28;20185;-69
2021/11/08 07:59:08;;;;;;;3.28;2.03;;;18.90;58.40;;;;;;5055179;28;20249;-69
2021/11/08 08:01:33;;;;;;;3.63;1.63;;;18.80;58.60;;;;;;5054722;28;20258;-68
2021/11/08 08:03:59;;;;;;;3.55;1.60;;;18.70;58.90;;;;;;5054338;28;20163;-69
2021/11/08 08:06:24;;;;;;;4.18;1.77;;;18.70;59.10;;;;;;5054915;28;20175;-69
2021/11/08 08:08:51;;;;;;;3.67;1.90;;;18.60;59.30;;;;;;5054822;28;20539;-67
2021/11/08 08:11:17;;;;;;;5.15;1.52;;;18.50;59.40;;;;;;5054313;28;20283;-67
2021/11/08 08:13:43;;;;;;;2.90;1.63;;;18.50;59.60;;;;;;5053114;28;20507;-67
2021/11/08 08:16:10;;;;;;;5.80;2.35;;;18.40;59.60;;;;;;5053837;28;20204;-67
2021/11/08 08:18:37;;;;;;;3.08;1.60;;;18.30;59.80;;;;;;5053573;28;20183;-68
2021/11/08 08:21:03;;;;;;;3.20;1.58;;;18.20;60.00;;;;;;5054908;28;20187;-67
2021/11/08 08:23:28;;;;;;;1.92;1.40;;;18.20;60.20;;;;;;5054607;28;20185;-67
2021/11/08 08:25:54;;;;;;;2.15;1.30;;;18.20;60.40;;;;;;5054119;28;20190;-67
2021/11/08 08:28:20;;;;;;;3.42;1.88;;;18.20;60.30;;;;;;5054618;28;20171;-68
2021/11/08 08:30:45;;;;;;;3.13;1.63;;;18.20;60.30;;;;;;5054337;28;20171;-69
2021/11/08 08:33:11;;;;;;;2.22;1.42;;;18.20;60.30;;;;;;5053505;28;20219;-70
2021/11/08 08:35:40;;;;;;;3.20;1.73;;;18.30;60.30;;;;;;5053933;28;20179;-70
2021/11/08 08:38:07;;;;;;;2.03;1.48;;;18.30;60.30;;;;;;5054550;28;20194;-70
2021/11/08 08:40:32;;;;;;;2.55;1.55;;;18.40;60.30;;;;;;5053567;28;20175;-70
2021/11/08 08:42:58;;;;;;;2.67;1.23;;;18.40;60.10;;;;;;5054185;28;20205;-68
2021/11/08 08:45:23;;;;;;;1.63;1.33;;;18.30;60.20;;;;;;5053961;28;20219;-68
2021/11/08 08:47:49;;;;;;;2.28;1.42;;;18.20;60.30;;;;;;5053078;28;20175;-68
2021/11/08 08:50:14;;;;;;;3.75;1.35;;;18.20;60.40;;;;;;5054475;28;20198;-68
2021/11/08 08:52:40;;;;;;;2.95;1.60;;;18.10;60.50;;;;;;5053809;28;20207;-68
2021/11/08 08:55:06;;;;;;;2.47;1.50;;;18.10;60.80;;;;;;5053822;28;20163;-69
2021/11/08 08:57:31;;;;;;;2.17;1.40;;;18.20;60.80;;;;;;5053909;28;20179;-69
2021/11/08 08:59:57;;;;;;;2.33;1.33;;;18.20;60.80;;;;;;5053273;28;20168;-68
2021/11/08 09:02:22;;;;;;;3.40;1.48;;;18.20;60.70;;;;;;5053859;28;20515;-68
2021/11/08 09:04:48;;;;;;;2.92;1.50;;;18.30;60.70;;;;;;5053753;28;20175;-68
2021/11/08 09:07:15;;;;;;;3.25;1.52;;;18.30;60.60;;;;;;5053301;28;20171;-67
2021/11/08 09:09:41;;;;;;;2.10;1.17;;;18.40;60.50;;;;;;5053941;28;20179;-67
2021/11/08 09:12:07;;;;;;;2.72;1.60;;;18.30;60.50;;;;;;5053694;28;20211;-67
2021/11/08 09:14:33;;;;;;;2.25;1.20;;;18.30;60.60;;;;;;5052761;28;20171;-67
2021/11/08 09:16:59;;;;;;;3.22;1.75;;;18.20;60.60;;;;;;5053513;28;20214;-67
2021/11/08 09:19:24;;;;;;;4.90;1.83;;;18.20;60.70;;;;;;5053839;28;20202;-67
2021/11/08 09:21:50;;;;;;;2.40;1.38;;;18.10;60.80;;;;;;5052774;28;20179;-67
2021/11/08 09:24:15;;;;;;;3.25;1.55;;;18.10;61.10;;;;;;5053338;28;20168;-67
2021/11/08 09:26:41;;;;;;;2.75;1.45;;;18.10;61.20;;;;;;5053236;28;20266;-68
2021/11/08 09:29:06;;;;;;;1.90;1.35;;;18.20;60.90;;;;;;5052756;28;20186;-68
2021/11/08 09:31:32;;;;;;;2.42;1.55;;;18.30;60.70;;;;;;5052836;28;20665;-69
2021/11/08 09:34:03;;;;;;;3.75;1.80;;;18.40;60.70;;;;;;5053566;28;20183;-69
2021/11/08 09:36:31;;;;;;;1.48;1.30;;;18.40;60.50;;;;;;5052727;28;20175;-69
2021/11/08 09:38:58;;;;;;;4.35;1.73;;;18.40;60.60;;;;;;5053470;28;20250;-68
2021/11/08 09:41:34;;;;;;;1.30;1.20;;;18.40;60.70;;;;;;5053375;28;20208;-68
2021/11/08 09:44:02;;;;;;;2.22;1.60;;;18.30;60.80;;;;;;5052433;28;20183;-68
2021/11/08 09:46:28;;;;;;;2.35;1.45;;;18.20;61.00;;;;;;5052950;28;20234;-68
2021/11/08 09:48:54;;;;;;;3.88;1.40;;;18.20;61.20;;;;;;5051039;28;20186;-68
2021/11/08 09:51:19;;;;;;;2.65;1.58;;;18.10;61.30;;;;;;5052391;28;20206;-67
2021/11/08 09:53:48;;;;;;;2.75;1.35;;;18.10;61.50;;;;;;5052668;28;20266;-67
2021/11/08 09:56:13;;;;;;;4.30;1.45;;;18.10;61.60;;;;;;5052213;28;20171;-68
2021/11/08 09:58:39;;;;;;;1.75;1.23;;;18.10;61.60;;;;;;5052550;28;20181;-68
2021/11/08 10:01:10;;;;;;;1.85;1.30;;;18.10;61.60;;;;;;5052639;28;20210;-68
2021/11/08 10:03:37;;;;;;;2.40;1.42;;;18.20;61.50;;;;;;5052025;28;20207;-67
2021/11/08 10:06:02;;;;;;;3.42;1.60;;;18.20;61.50;;;;;;5052855;28;20282;-68
2021/11/08 10:08:36;;;;;;;1.98;1.40;;;18.20;61.40;;;;;;5052833;28;20380;-67
2021/11/08 10:11:12;;;;;;;3.08;1.50;;;18.10;61.50;;;;;;5051939;28;20254;-66
2021/11/08 10:13:38;;;;;;;2.47;1.40;;;18.10;61.60;;;;;;5052470;28;20179;-67
2021/11/08 10:16:12;;;;;;;1.52;1.42;;;18.00;61.60;;;;;;5052814;28;20187;-67
2021/11/08 10:18:38;;;;;;;2.30;1.38;;;18.00;62.60;;;;;;5051509;28;20218;-67
2021/11/08 10:21:06;;;;;;;2.90;1.58;;;18.00;61.70;;;;;;5052648;28;20575;-68
2021/11/08 10:23:32;;;;;;;2.22;1.23;;;18.10;61.70;;;;;;5052072;28;20206;-69
2021/11/08 10:25:57;;;;;;;2.35;1.60;;;18.20;61.60;;;;;;5051590;28;20175;-67
2021/11/08 10:28:27;;;;;;;2.63;1.45;;;18.20;61.40;;;;;;5052519;28;20183;-68
2021/11/08 10:31:10;;;;;;;2.55;1.60;;;18.30;61.20;;;;;;5052255;28;20182;-68
2021/11/08 10:33:38;;;;;;;1.67;1.50;;;18.30;61.10;;;;;;5051997;28;20191;-68
2021/11/08 10:36:11;;;;;;;3.25;1.70;;;18.30;61.20;;;;;;5052358;28;20486;-68
2021/11/08 10:38:37;;;;;;;3.35;1.42;;;18.20;61.30;;;;;;5050099;28;20177;-69
2021/11/08 10:41:14;;;;;;;3.70;1.65;;;18.20;61.40;;;;;;5051530;28;20187;-68
2021/11/08 10:43:51;;;;;;;3.47;1.70;;;18.10;61.40;;;;;;5051748;28;20175;-68
2021/11/08 10:46:22;;;;;;;3.25;1.70;;;18.20;61.50;;;;;;5051135;28;20222;-68
2021/11/08 10:48:50;;;;;;;2.65;1.40;;;18.10;61.60;;;;;;5051767;28;20702;-67
2021/11/08 10:51:19;;;;;;;2.45;1.30;;;18.20;61.70;;;;;;5052025;28;20179;-68
2021/11/08 10:53:48;;;;;;;2.78;1.58;;;18.20;61.60;;;;;;5051120;28;20180;-68
2021/11/08 10:56:28;;;;;;;2.55;1.40;;;18.20;61.60;;;;;;5051802;28;20179;-68
2021/11/08 10:58:55;;;;;;;2.70;1.45;;;18.20;61.60;;;;;;5051992;28;20559;-69
2021/11/08 11:01:24;;;;;;;1.95;1.30;;;18.20;61.60;;;;;;5051102;28;20175;-69
2021/11/08 11:03:51;;;;;;;3.45;1.45;;;18.20;61.70;;;;;;5051657;28;20179;-68
2021/11/08 11:06:17;;;;;;;1.48;1.38;;;18.10;61.70;;;;;;5050575;28;20496;-68
2021/11/08 11:08:50;;;;;;;2.75;1.52;;;18.10;61.70;;;;;;5050739;28;20228;-67
2021/11/08 11:11:17;;;;;;;1.92;1.45;;;18.10;61.70;;;;;;5051579;28;20533;-68
2021/11/08 11:13:48;;;;;;;1.98;1.42;;;18.20;61.70;;;;;;5050623;28;20188;-68
2021/11/08 11:16:14;;;;;;;2.53;1.38;;;18.20;61.70;;;;;;5050949;28;20563;-68
2021/11/08 11:18:39;;;;;;;2.80;1.45;;;18.20;61.70;;;;;;5050101;28;20212;-68
2021/11/08 11:21:21;;;;;;;3.58;1.55;;;18.20;61.80;;;;;;5050769;28;20528;-68
2021/11/08 11:23:51;;;;;;;2.47;1.50;;;18.20;61.90;;;;;;5051418;28;20261;-67
2021/11/08 11:26:18;;;;;;;2.78;1.42;;;18.20;62.00;;;;;;5051541;28;20253;-67
2021/11/08 11:28:46;;;;;;;2.25;1.10;;;18.20;62.10;;;;;;5050467;28;20645;-68
2021/11/08 11:31:14;;;;;;;2.63;1.42;;;18.10;62.10;;;;;;5051583;28;20225;-68
2021/11/08 11:33:39;;;;;;;1.65;1.30;;;18.20;62.20;;;;;;5051239;28;20581;-69
2021/11/08 11:36:09;;;;;;;2.20;1.40;;;18.20;62.20;;;;;;5050753;28;20709;-69
2021/11/08 11:39:01;;;;;;;2.72;1.60;;;18.20;62.20;;;;;;5050953;28;20638;-70
2021/11/08 11:41:35;;;;;;;2.80;1.77;;;18.20;62.10;;;;;;5051524;28;20187;-68
2021/11/08 11:44:06;;;;;;;3.67;1.73;;;18.20;62.40;;;;;;5051388;28;20557;-67
2021/11/08 11:46:37;;;;;;;2.75;1.42;;;18.30;62.50;;;;;;5051138;28;20327;-68
2021/11/08 11:49:03;;;;;;;3.17;1.52;;;18.30;62.60;;;;;;5050451;28;20236;-67
2021/11/08 11:51:31;;;;;;;2.83;1.40;;;18.40;62.80;;;;;;5050929;28;20202;-66
2021/11/08 11:53:57;;;;;;;3.22;1.73;;;18.40;62.70;;;;;;5050892;28;20183;-65
2021/11/08 11:56:23;;;;;;;5.88;1.77;;;18.50;62.90;;;;;;5050223;28;20246;-66
2021/11/08 11:58:49;;;;;;;4.93;1.85;;;18.30;62.80;;;;;;5050692;28;20654;-65
2021/11/08 12:01:17;;;;;;;3.72;2.20;;;18.30;63.00;;;;;;5051037;28;20229;-68
2021/11/08 12:03:46;;;;;;;9.27;2.47;;;18.20;63.20;;;;;;5049865;28;20321;-67
2021/11/08 12:06:22;;;;;;;2.92;1.77;;;18.20;63.00;;;;;;5051135;28;20248;-67
2021/11/08 12:08:50;;;;;;;6.43;2.33;;;18.20;63.00;;;;;;5050859;28;20219;-66
2021/11/08 12:11:52;;;;;;;6.53;2.30;;;18.20;63.20;;;;;;5033304;28;20599;-66
2021/11/08 12:14:23;;;;;;;4.93;2.05;;;18.20;63.20;;;;;;5041136;28;20198;-66
2021/11/08 12:17:17;;;;;;;6.60;2.00;;;18.10;63.40;;;;;;5053789;28;20717;-66
2021/11/08 12:19:44;;;;;;;6.80;2.08;;;18.10;63.40;;;;;;5054288;28;20174;-66
2021/11/08 12:22:17;;;;;;;3.08;1.70;;;18.10;63.60;;;;;;5054319;28;20634;-66
2021/11/08 12:24:56;;;;;;;2.92;1.60;;;18.10;63.60;;;;;;5053301;28;20183;-66
2021/11/08 12:27:38;;;;;;;5.32;1.90;;;18.00;63.70;;;;;;5053577;28;20178;-63
2021/11/08 12:30:09;;;;;;;5.38;2.15;;;18.00;63.70;;;;;;5054310;28;20179;-63
2021/11/08 12:32:54;;;;;;;5.07;1.95;;;18.00;63.80;;;;;;5053327;28;20207;-64
2021/11/08 12:35:24;;;;;;;3.67;1.73;;;17.90;63.80;;;;;;5054043;28;20178;-64
2021/11/08 12:37:50;;;;;;;4.45;2.08;;;18.00;63.80;;;;;;5053611;28;20174;-64
2021/11/08 12:40:17;;;;;;;6.00;2.20;;;17.90;63.70;;;;;;5054138;28;20538;-64
2021/11/08 12:42:43;;;;;;;5.68;1.88;;;17.90;63.60;;;;;;5053843;28;20175;-64
2021/11/08 12:45:24;;;;;;;9.77;2.70;;;17.90;63.60;;;;;;5053158;28;20611;-64
2021/11/08 12:48:11;;;;;;;3.47;1.83;;;17.90;63.50;;;;;;5053996;28;20182;-62
2021/11/08 12:50:42;;;;;;;5.65;2.13;;;17.80;63.30;;;;;;5053771;28;20175;-62
2021/11/08 12:53:20;;;;;;;4.95;2.38;;;17.80;63.30;;;;;;5053113;28;20747;-63
2021/11/08 12:55:45;;;;;;;3.38;1.83;;;17.80;63.30;;;;;;5053619;28;20553;-63
2021/11/08 12:58:11;;;;;;;4.95;1.83;;;17.80;63.20;;;;;;5053792;28;20630;-64
2021/11/08 13:00:43;;;;;;;7.43;2.45;;;17.80;63.10;;;;;;5051513;28;20571;-64
2021/11/08 13:03:14;;;;;;;6.97;2.22;;;17.80;63.00;;;;;;5053819;28;20234;-63
2021/11/08 13:05:44;;;;;;;6.28;2.70;;;17.90;63.00;;;;;;5053742;28;20181;-63
2021/11/08 13:08:29;;;;;;;6.40;2.08;;;17.80;62.80;;;;;;5053134;28;20203;-63
2021/11/08 13:11:15;;;;;;;6.15;2.40;;;17.90;62.60;;;;;;5053680;28;20171;-62
2021/11/08 13:13:58;;;;;;;6.88;2.42;;;17.90;62.30;;;;;;5052903;28;20186;-62
2021/11/08 13:16:32;;;;;;;5.97;2.13;;;17.90;62.20;;;;;;5053552;28;20190;-63
2021/11/08 13:19:05;;;;;;;4.28;2.00;;;17.90;62.20;;;;;;5053776;28;20179;-63
2021/11/08 13:21:30;;;;;;;2.92;1.95;;;18.00;62.20;;;;;;5052662;28;20186;-63
2021/11/08 13:23:56;;;;;;;4.75;2.05;;;18.00;62.10;;;;;;5052439;28;20171;-62
2021/11/08 13:26:22;;;;;;;4.72;1.77;;;18.00;62.00;;;;;;5053453;28;20542;-63
2021/11/08 13:28:47;;;;;;;4.72;1.90;;;18.00;61.90;;;;;;5052476;28;20185;-62
2021/11/08 13:31:16;;;;;;;7.22;1.95;;;18.00;61.90;;;;;;5053254;28;20171;-64
2021/11/08 13:33:50;;;;;;;6.65;1.75;;;18.00;61.80;;;;;;5052947;28;20187;-64
2021/11/08 13:36:16;;;;;;;4.57;2.10;;;18.00;61.80;;;;;;5052820;28;20178;-64
2021/11/08 13:38:48;;;;;;;4.95;2.28;;;18.00;61.90;;;;;;5053024;28;20229;-63
2021/11/08 13:41:26;;;;;;;4.10;2.22;;;17.90;61.90;;;;;;5051259;28;20191;-64
2021/11/08 13:43:59;;;;;;;4.25;1.90;;;17.90;62.00;;;;;;5052849;28;20242;-63
2021/11/08 13:46:26;;;;;;;3.22;1.95;;;17.80;62.00;;;;;;5052983;28;20627;-63
2021/11/08 13:48:54;;;;;;;5.07;2.13;;;17.80;62.10;;;;;;5052139;28;20244;-63
2021/11/08 13:51:27;;;;;;;4.85;2.08;;;17.80;62.10;;;;;;5052728;28;20664;-64
2021/11/08 13:54:11;;;;;;;5.72;2.20;;;17.80;62.10;;;;;;5052565;28;20634;-63
2021/11/08 13:56:41;;;;;;;6.65;2.08;;;17.80;62.10;;;;;;5052029;28;20171;-64
2021/11/08 13:59:11;;;;;;;5.65;2.10;;;17.80;62.20;;;;;;5052983;28;20229;-64
2021/11/08 14:01:39;;;;;;;2.97;1.70;;;17.80;62.10;;;;;;5052593;28;20190;-64
2021/11/08 14:04:05;;;;;;;3.65;1.67;;;17.80;62.10;;;;;;5051965;28;20199;-64
2021/11/08 14:06:41;;;;;;;3.92;1.98;;;17.70;62.20;;;;;;5052317;28;20186;-64
2021/11/08 14:09:11;;;;;;;4.85;2.03;;;17.70;62.20;;;;;;5053167;28;20181;-63
2021/11/08 14:11:42;;;;;;;6.07;2.17;;;17.70;62.40;;;;;;5052020;28;20206;-62
2021/11/08 14:14:15;;;;;;;5.15;1.90;;;17.60;62.40;;;;;;5052775;28;20186;-63
2021/11/08 14:16:43;;;;;;;3.35;1.67;;;17.60;62.40;;;;;;5051545;28;20178;-63
2021/11/08 14:19:08;;;;;;;4.80;2.33;;;17.60;62.30;;;;;;5052307;28;20181;-63
2021/11/08 14:21:34;;;;;;;5.47;2.20;;;17.60;62.40;;;;;;5052234;28;20579;-63
2021/11/08 14:24:08;;;;;;;3.30;1.77;;;17.60;62.30;;;;;;5051657;28;20171;-64
2021/11/08 14:26:35;;;;;;;3.85;1.85;;;17.60;62.30;;;;;;5052080;28;20178;-66
2021/11/08 14:29:08;;;;;;;7.32;2.20;;;17.60;62.50;;;;;;5052346;28;20183;-67
2021/11/08 14:31:34;;;;;;;4.50;2.10;;;17.60;62.50;;;;;;5052855;28;20314;-67
2021/11/08 14:34:03;;;;;;;5.88;2.30;;;17.70;62.50;;;;;;5068894;28;20285;-68